Terminal Aerodrome Forecast
Issued by NWS

Home | Current Version | Previous Version | Text Only | Print | Product List | Glossary On
Versions: 1 2 3 4 5 6 7 8 9 10 11 12
000
FTUS44 KEPZ 241720
TAFTCS
TAF
KTCS 241720Z 2418/2518 04006KT P6SM FEW120
     FM242000 09009KT P6SM FEW120 SCT250
     FM250300 33008KT P6SM SCT150 SCT250
     FM251200 01007KT P6SM SCT150=

USA.gov is the U.S. government's official web portal to all federal, state and local government web resources and services.